createdAt,value
2019-06-20T00:00:10.820Z,1004.24
2019-06-20T00:01:10.813Z,1004.27
2019-06-20T00:02:10.797Z,1004.24
2019-06-20T00:03:10.795Z,1004.22
2019-06-20T00:04:10.787Z,1004.21
2019-06-20T00:05:10.764Z,1004.28
2019-06-20T00:06:10.752Z,1004.25
2019-06-20T00:07:10.751Z,1004.31
2019-06-20T00:08:10.728Z,1004.37
2019-06-20T00:09:10.730Z,1004.35
2019-06-20T00:10:10.708Z,1004.36
2019-06-20T00:11:10.696Z,1004.35
2019-06-20T00:12:10.687Z,1004.34
2019-06-20T00:13:10.676Z,1004.34
2019-06-20T00:14:10.667Z,1004.39
2019-06-20T00:15:10.670Z,1004.34
2019-06-20T00:16:10.643Z,1004.35
2019-06-20T00:17:10.632Z,1004.33
2019-06-20T00:18:10.637Z,1004.31
2019-06-20T00:19:10.612Z,1004.34
2019-06-20T00:20:10.598Z,1004.38
2019-06-20T00:21:10.597Z,1004.35
2019-06-20T00:22:10.577Z,1004.39
2019-06-20T00:23:10.567Z,1004.37
2019-06-20T00:24:10.559Z,1004.34
2019-06-20T00:25:10.547Z,1004.32
2019-06-20T00:26:10.536Z,1004.40
2019-06-20T00:27:10.543Z,1004.41
2019-06-20T00:28:10.515Z,1004.42
2019-06-20T00:29:10.506Z,1004.40
2019-06-20T00:30:10.499Z,1004.31
2019-06-20T00:31:10.481Z,1004.30
2019-06-20T00:32:10.470Z,1004.27
2019-06-20T00:33:10.472Z,1004.24
2019-06-20T00:34:10.448Z,1004.27
2019-06-20T00:35:10.437Z,1004.31
2019-06-20T00:36:10.430Z,1004.23
2019-06-20T00:37:10.415Z,1004.28
2019-06-20T00:38:10.407Z,1004.23
2019-06-20T00:39:10.409Z,1004.29
2019-06-20T00:40:10.394Z,1004.31
2019-06-20T00:41:10.372Z,1004.35
2019-06-20T00:42:10.379Z,1004.34
2019-06-20T00:43:17.333Z,1004.35
2019-06-20T00:44:11.351Z,1004.32
2019-06-20T00:45:10.335Z,1004.35
2019-06-20T00:46:10.324Z,1004.43
2019-06-20T00:47:10.311Z,1004.39
2019-06-20T00:48:10.308Z,1004.39
2019-06-20T00:49:10.290Z,1004.40
2019-06-20T00:50:10.298Z,1004.40
2019-06-20T00:51:10.266Z,1004.39
2019-06-20T00:52:10.255Z,1004.42
2019-06-20T00:53:10.252Z,1004.40
2019-06-20T00:54:10.243Z,1004.40
2019-06-20T00:55:10.222Z,1004.36
2019-06-20T00:56:10.229Z,1004.36
2019-06-20T00:57:10.208Z,1004.39
2019-06-20T00:58:10.192Z,1004.36
2019-06-20T00:59:10.184Z,1004.40
2019-06-20T01:00:10.171Z,1004.41
2019-06-20T01:01:10.156Z,1004.35
2019-06-20T01:02:10.279Z,1004.34
2019-06-20T01:03:10.137Z,1004.37
2019-06-20T01:04:10.125Z,1004.33
2019-06-20T01:05:10.113Z,1004.35
2019-06-20T01:06:10.106Z,1004.36
2019-06-20T01:07:10.093Z,1004.36
2019-06-20T01:08:10.122Z,1004.37
2019-06-20T01:09:10.076Z,1004.39
2019-06-20T01:10:10.061Z,1004.41
2019-06-20T01:11:10.051Z,1004.43
2019-06-20T01:12:10.046Z,1004.45
2019-06-20T01:13:10.037Z,1004.41
2019-06-20T01:14:10.031Z,1004.42
2019-06-20T01:15:10.010Z,1004.47
2019-06-20T01:16:09.996Z,1004.46
2019-06-20T01:17:09.991Z,1004.47
2019-06-20T01:18:09.971Z,1004.50
2019-06-20T01:19:09.965Z,1004.49
2019-06-20T01:20:09.962Z,1004.51
2019-06-20T01:21:09.943Z,1004.46
2019-06-20T01:22:10.127Z,1004.44
2019-06-20T01:23:09.917Z,1004.44
2019-06-20T01:24:09.906Z,1004.41
2019-06-20T01:25:09.895Z,1004.40
2019-06-20T01:26:09.908Z,1004.43
2019-06-20T01:27:09.876Z,1004.38
2019-06-20T01:28:09.870Z,1004.38
2019-06-20T01:29:09.863Z,1004.35
2019-06-20T01:30:09.848Z,1004.32
2019-06-20T01:31:09.834Z,1004.37
2019-06-20T01:32:09.837Z,1004.40
2019-06-20T01:33:09.812Z,1004.38
2019-06-20T01:34:09.824Z,1004.40
2019-06-20T01:35:09.791Z,1004.43
2019-06-20T01:36:09.779Z,1004.43
2019-06-20T01:37:09.766Z,1004.44
2019-06-20T01:38:09.766Z,1004.47
2019-06-20T01:39:09.749Z,1004.47
2019-06-20T01:40:09.735Z,1004.45
2019-06-20T01:41:09.743Z,1004.43
2019-06-20T01:42:09.716Z,1004.46
2019-06-20T01:43:09.705Z,1004.42
2019-06-20T01:44:09.704Z,1004.49
2019-06-20T01:45:09.680Z,1004.46
2019-06-20T01:46:09.670Z,1004.44
2019-06-20T01:47:09.665Z,1004.44
2019-06-20T01:48:09.649Z,1004.44
2019-06-20T01:49:09.644Z,1004.44
2019-06-20T01:50:09.647Z,1004.46
2019-06-20T01:51:09.618Z,1004.44
2019-06-20T01:52:09.607Z,1004.42
2019-06-20T01:53:09.596Z,1004.48
2019-06-20T01:54:09.585Z,1004.52
2019-06-20T01:55:09.576Z,1004.49
2019-06-20T01:56:09.572Z,1004.48
2019-06-20T01:57:09.552Z,1004.49
2019-06-20T01:58:09.543Z,1004.57
2019-06-20T01:59:09.529Z,1004.55
2019-06-20T02:00:09.555Z,1004.58
2019-06-20T02:01:09.509Z,1004.54
2019-06-20T02:02:09.508Z,1004.56
2019-06-20T02:03:09.490Z,1004.51
2019-06-20T02:04:09.477Z,1004.53
2019-06-20T02:05:09.490Z,1004.52
2019-06-20T02:06:09.454Z,1004.51
2019-06-20T02:07:09.444Z,1004.52
2019-06-20T02:08:09.446Z,1004.54
2019-06-20T02:09:09.423Z,1004.52
2019-06-20T02:10:09.414Z,1004.57
2019-06-20T02:11:09.403Z,1004.56
2019-06-20T02:12:09.390Z,1004.57
2019-06-20T02:13:09.385Z,1004.55
2019-06-20T02:14:09.389Z,1004.61
2019-06-20T02:15:09.357Z,1004.65
2019-06-20T02:16:09.348Z,1004.60
2019-06-20T02:17:09.341Z,1004.63
2019-06-20T02:18:09.326Z,1004.67
2019-06-20T02:19:09.319Z,1004.63
2019-06-20T02:20:09.314Z,1004.65
2019-06-20T02:21:09.296Z,1004.65
2019-06-20T02:22:09.288Z,1004.65
2019-06-20T02:23:09.275Z,1004.70
2019-06-20T02:24:09.264Z,1004.66
2019-06-20T02:25:09.251Z,1004.66
2019-06-20T02:26:09.255Z,1004.63
2019-06-20T02:27:09.233Z,1004.68
2019-06-20T02:28:09.220Z,1004.65
2019-06-20T02:29:09.208Z,1004.65
2019-06-20T02:30:09.200Z,1004.69
2019-06-20T02:31:09.188Z,1004.65
2019-06-20T02:32:09.195Z,1004.64
2019-06-20T02:33:09.166Z,1004.64
2019-06-20T02:34:09.157Z,1004.60
2019-06-20T02:35:09.154Z,1004.62
2019-06-20T02:36:09.170Z,1004.66
2019-06-20T02:37:09.139Z,1004.68
2019-06-20T02:38:09.133Z,1004.61
2019-06-20T02:39:09.103Z,1004.66
2019-06-20T02:40:09.094Z,1004.64
2019-06-20T02:41:09.082Z,1004.67
2019-06-20T02:42:09.076Z,1004.72
2019-06-20T02:43:09.060Z,1004.70
2019-06-20T02:44:28.456Z,1004.74
2019-06-20T02:45:10.038Z,1004.70
2019-06-20T02:46:09.027Z,1004.71
2019-06-20T02:47:09.022Z,1004.74
2019-06-20T02:48:09.011Z,1004.71
2019-06-20T02:49:08.997Z,1004.73
2019-06-20T02:50:09.001Z,1004.72
2019-06-20T02:51:08.978Z,1004.78
2019-06-20T02:52:08.966Z,1004.77
2019-06-20T02:53:08.954Z,1004.77
2019-06-20T02:54:08.943Z,1004.79
2019-06-20T02:55:08.931Z,1004.81
2019-06-20T02:56:08.943Z,1004.83
2019-06-20T02:57:08.909Z,1004.85
2019-06-20T02:58:08.903Z,1004.82
2019-06-20T02:59:08.891Z,1004.84
2019-06-20T03:00:08.877Z,1004.86
2019-06-20T03:01:08.869Z,1004.89
2019-06-20T03:02:08.867Z,1004.88
2019-06-20T03:03:08.846Z,1004.86
2019-06-20T03:04:08.850Z,1004.87
2019-06-20T03:05:08.823Z,1004.86
2019-06-20T03:06:08.811Z,1004.87
2019-06-20T03:07:08.811Z,1004.92
2019-06-20T03:08:08.814Z,1004.92
2019-06-20T03:09:08.783Z,1004.91
2019-06-20T03:10:08.770Z,1004.88
2019-06-20T03:11:08.760Z,1004.92
2019-06-20T03:12:08.754Z,1004.89
2019-06-20T03:13:09.548Z,1004.91
2019-06-20T03:14:08.741Z,1004.91
2019-06-20T03:15:08.725Z,1004.96
2019-06-20T03:16:08.706Z,1005.00
2019-06-20T03:17:08.696Z,1004.98
2019-06-20T03:18:08.688Z,1004.97
2019-06-20T03:19:08.697Z,1005.03
2019-06-20T03:20:08.698Z,1005.06
2019-06-20T03:21:08.655Z,1005.05
2019-06-20T03:22:08.641Z,1005.06
2019-06-20T03:23:08.633Z,1005.07
2019-06-20T03:24:08.622Z,1005.07
2019-06-20T03:25:08.613Z,1005.07
2019-06-20T03:26:08.612Z,1005.05
2019-06-20T03:27:08.592Z,1005.05
2019-06-20T03:28:08.581Z,1005.03
2019-06-20T03:29:08.567Z,1005.07
2019-06-20T03:30:08.559Z,1005.00
2019-06-20T03:31:08.551Z,1005.05
2019-06-20T03:32:08.550Z,1005.03
2019-06-20T03:33:08.528Z,1005.06
2019-06-20T03:34:08.517Z,1005.06
2019-06-20T03:35:08.503Z,1005.06
2019-06-20T03:36:08.505Z,1005.06
2019-06-20T03:37:08.482Z,1005.08
2019-06-20T03:38:08.491Z,1005.06
2019-06-20T03:39:08.462Z,1005.05
2019-06-20T03:40:08.455Z,1005.09
2019-06-20T03:41:08.439Z,1005.08
2019-06-20T03:42:08.435Z,1005.09
2019-06-20T03:43:08.423Z,1005.13
2019-06-20T03:44:08.419Z,1005.11
2019-06-20T03:45:08.408Z,1005.09
2019-06-20T03:46:08.388Z,1005.12
2019-06-20T03:47:08.375Z,1005.10
2019-06-20T03:48:08.374Z,1005.12
2019-06-20T03:49:08.356Z,1005.15
2019-06-20T03:50:08.354Z,1005.14
2019-06-20T03:51:08.364Z,1005.14
2019-06-20T03:52:08.326Z,1005.15
2019-06-20T03:53:08.318Z,1005.11
2019-06-20T03:54:08.300Z,1005.17
2019-06-20T03:55:08.293Z,1005.17
2019-06-20T03:56:08.292Z,1005.19
2019-06-20T03:57:08.277Z,1005.20
2019-06-20T03:58:08.265Z,1005.20
2019-06-20T03:59:08.250Z,1005.16
2019-06-20T04:00:08.263Z,1005.19
2019-06-20T04:01:08.348Z,1005.17
2019-06-20T04:02:08.227Z,1005.24
2019-06-20T04:03:08.211Z,1005.28
2019-06-20T04:04:08.197Z,1005.28
2019-06-20T04:05:08.188Z,1005.27
2019-06-20T04:06:08.176Z,1005.27
2019-06-20T04:07:08.172Z,1005.32
2019-06-20T04:08:08.167Z,1005.30
2019-06-20T04:09:08.142Z,1005.30
2019-06-20T04:10:08.131Z,1005.33
2019-06-20T04:11:08.126Z,1005.31
2019-06-20T04:12:08.112Z,1005.30
2019-06-20T04:13:08.101Z,1005.36
2019-06-20T04:14:08.108Z,1005.36
2019-06-20T04:15:18.707Z,1005.39
2019-06-20T04:16:09.075Z,1005.39
2019-06-20T04:17:08.060Z,1005.38
2019-06-20T04:18:08.046Z,1005.38
2019-06-20T04:19:08.048Z,1005.42
2019-06-20T04:20:08.035Z,1005.41
2019-06-20T04:21:08.045Z,1005.43
2019-06-20T04:22:08.011Z,1005.46
2019-06-20T04:23:07.995Z,1005.52
2019-06-20T04:24:07.987Z,1005.53
2019-06-20T04:25:07.972Z,1005.54
2019-06-20T04:26:07.979Z,1005.53
2019-06-20T04:27:07.961Z,1005.55
2019-06-20T04:28:07.941Z,1005.56
2019-06-20T04:29:07.929Z,1005.59
2019-06-20T04:30:07.923Z,1005.60
2019-06-20T04:31:07.906Z,1005.62
2019-06-20T04:32:07.914Z,1005.69
2019-06-20T04:33:07.894Z,1005.70
2019-06-20T04:34:07.881Z,1005.69
2019-06-20T04:35:07.865Z,1005.73
2019-06-20T04:36:07.895Z,1005.75
2019-06-20T04:37:07.846Z,1005.74
2019-06-20T04:38:07.906Z,1005.75
2019-06-20T04:39:18.610Z,1005.82
2019-06-20T04:40:08.813Z,1005.82
2019-06-20T04:41:07.803Z,1005.82
2019-06-20T04:42:07.796Z,1005.80
2019-06-20T04:43:07.782Z,1005.81
2019-06-20T04:44:07.783Z,1005.82
2019-06-20T04:45:07.781Z,1005.85
2019-06-20T04:46:07.752Z,1005.80
2019-06-20T04:47:07.761Z,1005.83
2019-06-20T04:48:07.732Z,1005.81
2019-06-20T04:49:07.717Z,1005.81
2019-06-20T04:50:07.724Z,1005.81
2019-06-20T04:51:07.699Z,1005.79
2019-06-20T04:52:07.689Z,1005.77
2019-06-20T04:53:07.675Z,1005.80
2019-06-20T04:54:07.668Z,1005.75
2019-06-20T04:55:07.654Z,1005.77
2019-06-20T04:56:07.656Z,1005.79
2019-06-20T04:57:07.631Z,1005.80
2019-06-20T04:58:07.637Z,1005.84
2019-06-20T04:59:07.625Z,1005.84
2019-06-20T05:00:07.600Z,1005.87
2019-06-20T05:01:07.589Z,1005.90
2019-06-20T05:02:07.618Z,1005.88
2019-06-20T05:03:07.570Z,1005.90
2019-06-20T05:04:07.583Z,1005.97
2019-06-20T05:05:07.553Z,1005.93
2019-06-20T05:06:07.536Z,1005.98
2019-06-20T05:07:07.526Z,1006.01
2019-06-20T05:08:07.535Z,1005.97
2019-06-20T05:09:07.509Z,1006.05
2019-06-20T05:10:07.496Z,1006.03
2019-06-20T05:11:07.484Z,1006.02
2019-06-20T05:12:07.471Z,1006.05
2019-06-20T05:13:07.461Z,1006.01
2019-06-20T05:14:07.464Z,1006.04
2019-06-20T05:15:07.462Z,1006.03
2019-06-20T05:16:07.433Z,1006.07
2019-06-20T05:17:07.509Z,1006.07
2019-06-20T05:18:07.408Z,1006.02
2019-06-20T05:19:07.397Z,1006.14
2019-06-20T05:20:07.438Z,1006.16
2019-06-20T05:21:07.382Z,1006.20
2019-06-20T05:22:07.364Z,1006.16
2019-06-20T05:23:07.356Z,1006.26
2019-06-20T05:24:07.340Z,1006.33
2019-06-20T05:25:07.331Z,1006.27
2019-06-20T05:26:07.333Z,1006.27
2019-06-20T05:27:07.318Z,1006.32
2019-06-20T05:28:07.297Z,1006.38
2019-06-20T05:29:07.289Z,1006.35
2019-06-20T05:30:07.441Z,1006.33
2019-06-20T05:31:07.266Z,1006.41
2019-06-20T05:32:07.345Z,1006.43
2019-06-20T05:33:07.251Z,1006.40
2019-06-20T05:34:07.237Z,1006.42
2019-06-20T05:35:07.224Z,1006.46
2019-06-20T05:36:07.215Z,1006.42
2019-06-20T05:37:07.204Z,1006.45
2019-06-20T05:38:07.207Z,1006.42
2019-06-20T05:39:07.193Z,1006.40
2019-06-20T05:40:07.169Z,1006.40
2019-06-20T05:41:07.161Z,1006.38
2019-06-20T05:42:07.150Z,1006.40
2019-06-20T05:43:07.137Z,1006.40
2019-06-20T05:44:07.139Z,1006.43
2019-06-20T05:45:07.127Z,1006.40
2019-06-20T05:46:10.807Z,1006.44
2019-06-20T05:47:12.426Z,1006.42
2019-06-20T05:48:08.083Z,1006.42
2019-06-20T05:49:07.077Z,1006.43
2019-06-20T05:50:07.074Z,1006.47
2019-06-20T05:51:07.053Z,1006.45
2019-06-20T05:52:07.042Z,1006.51
2019-06-20T05:53:07.030Z,1006.48
2019-06-20T05:54:07.020Z,1006.54
2019-06-20T05:55:07.010Z,1006.54
2019-06-20T05:56:07.029Z,1006.53
2019-06-20T05:57:07.027Z,1006.53
2019-06-20T05:58:06.976Z,1006.50
2019-06-20T05:59:06.970Z,1006.50
2019-06-20T06:00:08.381Z,1006.52
2019-06-20T06:01:06.954Z,1006.55
2019-06-20T06:02:06.962Z,1006.58
2019-06-20T06:03:07.319Z,1006.59
2019-06-20T06:04:06.914Z,1006.60
2019-06-20T06:05:06.966Z,1006.59
2019-06-20T06:06:06.893Z,1006.58
2019-06-20T06:07:06.888Z,1006.65
2019-06-20T06:08:06.884Z,1006.63
2019-06-20T06:09:06.898Z,1006.67
2019-06-20T06:10:06.850Z,1006.69
2019-06-20T06:11:06.901Z,1006.65
2019-06-20T06:12:06.828Z,1006.71
2019-06-20T06:13:06.816Z,1006.70
2019-06-20T06:14:06.818Z,1006.66
2019-06-20T06:15:07.388Z,1006.68
2019-06-20T06:16:06.794Z,1006.68
2019-06-20T06:17:06.780Z,1006.69
2019-06-20T06:18:06.761Z,1006.73
2019-06-20T06:19:06.750Z,1006.66
2019-06-20T06:20:06.766Z,1006.71
2019-06-20T06:21:06.734Z,1006.74
2019-06-20T06:22:06.717Z,1006.68
2019-06-20T06:23:06.712Z,1006.70
2019-06-20T06:24:06.700Z,1006.69
2019-06-20T06:25:06.696Z,1006.69
2019-06-20T06:26:06.700Z,1006.77
2019-06-20T06:27:06.666Z,1006.77
2019-06-20T06:28:06.655Z,1006.69
2019-06-20T06:29:06.650Z,1006.73
2019-06-20T06:30:06.643Z,1006.74
2019-06-20T06:31:06.628Z,1006.70
2019-06-20T06:32:06.625Z,1006.71
2019-06-20T06:33:06.605Z,1006.70
2019-06-20T06:34:06.594Z,1006.71
2019-06-20T06:35:06.627Z,1006.74
2019-06-20T06:36:06.571Z,1006.77
2019-06-20T06:37:06.563Z,1006.69
2019-06-20T06:38:06.567Z,1006.72
2019-06-20T06:39:06.578Z,1006.66
2019-06-20T06:40:06.540Z,1006.71
2019-06-20T06:41:06.516Z,1006.71
2019-06-20T06:42:06.504Z,1006.70
2019-06-20T06:43:06.497Z,1006.70
2019-06-20T06:44:08.477Z,1006.71
2019-06-20T06:45:06.474Z,1006.76
2019-06-20T06:46:06.468Z,1006.76
2019-06-20T06:47:06.466Z,1006.77
2019-06-20T06:48:06.446Z,1006.81
2019-06-20T06:49:06.431Z,1006.80
2019-06-20T06:50:06.439Z,1006.84
2019-06-20T06:51:06.408Z,1006.81
2019-06-20T06:52:06.407Z,1006.84
2019-06-20T06:53:06.385Z,1006.85
2019-06-20T06:54:06.386Z,1006.88
2019-06-20T06:55:06.377Z,1006.85
2019-06-20T06:56:06.381Z,1006.84
2019-06-20T06:57:06.343Z,1006.86
2019-06-20T06:58:06.332Z,1006.92
2019-06-20T06:59:06.323Z,1006.87
2019-06-20T07:00:06.438Z,1006.93
2019-06-20T07:01:10.150Z,1006.95
2019-06-20T07:02:06.306Z,1006.96
2019-06-20T07:03:06.283Z,1006.96
2019-06-20T07:04:06.271Z,1006.92
2019-06-20T07:05:06.259Z,1006.91
2019-06-20T07:06:06.256Z,1006.94
2019-06-20T07:07:06.241Z,1006.89
2019-06-20T07:08:06.248Z,1006.92
2019-06-20T07:09:06.226Z,1006.89
2019-06-20T07:10:06.209Z,1006.96
2019-06-20T07:11:06.205Z,1006.87
2019-06-20T07:12:06.203Z,1006.90
2019-06-20T07:13:06.181Z,1006.87
2019-06-20T07:14:06.173Z,1006.86
2019-06-20T07:15:06.157Z,1006.85
2019-06-20T07:16:06.152Z,1006.87
2019-06-20T07:17:06.133Z,1006.88
2019-06-20T07:18:06.131Z,1006.87
2019-06-20T07:19:06.112Z,1006.87
2019-06-20T07:20:06.121Z,1006.84
2019-06-20T07:21:06.087Z,1006.91
2019-06-20T07:22:06.078Z,1006.89
2019-06-20T07:23:06.074Z,1006.86
2019-06-20T07:24:06.057Z,1006.92
2019-06-20T07:25:06.048Z,1006.91
2019-06-20T07:26:06.042Z,1006.88
2019-06-20T07:27:06.024Z,1006.89
2019-06-20T07:28:06.018Z,1006.92
2019-06-20T07:29:06.003Z,1006.95
2019-06-20T07:30:06.004Z,1006.88
2019-06-20T07:31:05.981Z,1006.88
2019-06-20T07:32:05.982Z,1006.91
2019-06-20T07:33:06.010Z,1006.92
2019-06-20T07:34:05.952Z,1006.98
2019-06-20T07:35:05.965Z,1006.92
2019-06-20T07:36:05.930Z,1007.01
2019-06-20T07:37:05.918Z,1007.06
2019-06-20T07:38:05.943Z,1007.03
2019-06-20T07:39:05.901Z,1007.04
2019-06-20T07:40:05.885Z,1007.09
2019-06-20T07:41:05.883Z,1007.05
2019-06-20T07:42:05.866Z,1007.08
2019-06-20T07:43:05.857Z,1007.12
2019-06-20T07:44:05.863Z,1007.05
2019-06-20T07:45:05.834Z,1007.13
2019-06-20T07:46:05.905Z,1007.14
2019-06-20T07:47:17.049Z,1007.20
2019-06-20T07:48:06.802Z,1007.17
2019-06-20T07:49:05.793Z,1007.36
2019-06-20T07:50:05.797Z,1007.18
2019-06-20T07:51:05.767Z,1007.19
2019-06-20T07:52:05.757Z,1007.14
2019-06-20T07:53:05.748Z,1007.11
2019-06-20T07:54:05.754Z,1007.11
2019-06-20T07:55:05.729Z,1007.11
2019-06-20T07:56:09.292Z,1007.12
2019-06-20T07:57:05.707Z,1007.15
2019-06-20T07:58:05.712Z,1007.15
2019-06-20T07:59:05.686Z,1007.21
2019-06-20T08:00:05.679Z,1007.12
2019-06-20T08:01:05.664Z,1007.13
2019-06-20T08:02:05.662Z,1007.12
2019-06-20T08:03:05.639Z,1007.10
2019-06-20T08:04:05.636Z,1007.15
2019-06-20T08:05:05.619Z,1007.13
2019-06-20T08:06:05.613Z,1007.14
2019-06-20T08:07:05.603Z,1007.08
2019-06-20T08:08:05.605Z,1007.11
2019-06-20T08:09:05.592Z,1007.11
2019-06-20T08:10:05.568Z,1007.14
2019-06-20T08:11:05.558Z,1007.11
2019-06-20T08:12:05.554Z,1007.12
2019-06-20T08:13:05.553Z,1007.13
2019-06-20T08:14:05.534Z,1007.15
2019-06-20T08:15:15.081Z,1007.12
2019-06-20T08:16:06.502Z,1007.20
2019-06-20T08:17:05.492Z,1007.18
2019-06-20T08:18:05.516Z,1007.17
2019-06-20T08:19:05.470Z,1007.20
2019-06-20T08:20:05.476Z,1007.22
2019-06-20T08:21:05.453Z,1007.15
2019-06-20T08:22:05.453Z,1007.25
2019-06-20T08:23:05.429Z,1007.20
2019-06-20T08:24:05.422Z,1007.24
2019-06-20T08:25:05.483Z,1007.27
2019-06-20T08:26:05.409Z,1007.29
2019-06-20T08:27:06.657Z,1007.28
2019-06-20T08:28:06.514Z,1007.33
2019-06-20T08:29:18.713Z,1007.30
2019-06-20T08:30:07.286Z,1007.32
2019-06-20T08:31:06.713Z,1007.28
2019-06-20T08:32:06.537Z,1007.31
2019-06-20T08:33:10.325Z,1007.31
2019-06-20T08:34:06.592Z,1007.32
2019-06-20T08:35:06.415Z,1007.36
2019-06-20T08:36:06.555Z,1007.41
2019-06-20T08:37:06.395Z,1007.43
2019-06-20T08:38:07.075Z,1007.40
2019-06-20T08:39:06.494Z,1007.42
2019-06-20T08:40:06.468Z,1007.42
2019-06-20T08:41:06.468Z,1007.42
2019-06-20T08:42:06.386Z,1007.43
2019-06-20T08:43:06.237Z,1007.46
2019-06-20T08:44:06.159Z,1007.46
2019-06-20T08:45:06.114Z,1007.47
2019-06-20T08:46:10.072Z,1007.50
2019-06-20T08:47:06.181Z,1007.44
2019-06-20T08:48:05.166Z,1007.45
2019-06-20T08:49:05.783Z,1007.46
2019-06-20T08:50:06.068Z,1007.46
2019-06-20T08:51:06.472Z,1007.47
2019-06-20T08:52:05.597Z,1007.43
2019-06-20T08:53:05.823Z,1007.48
2019-06-20T08:54:05.451Z,1007.46
2019-06-20T08:55:05.457Z,1007.47
2019-06-20T08:56:05.499Z,1007.49
2019-06-20T08:57:05.852Z,1007.50
2019-06-20T08:58:05.606Z,1007.45
2019-06-20T08:59:05.054Z,1007.46
2019-06-20T09:03:05.010Z,1007.48
2019-06-20T09:04:04.997Z,1007.46
2019-06-20T09:05:04.998Z,1007.48
2019-06-20T09:06:04.977Z,1007.42
2019-06-20T09:08:04.968Z,1007.50
2019-06-20T09:09:04.945Z,1007.52
2019-06-20T09:10:04.933Z,1007.49
2019-06-20T09:11:04.926Z,1007.52
2019-06-20T09:12:05.166Z,1007.47
2019-06-20T09:13:04.903Z,1007.53
2019-06-20T09:14:04.917Z,1007.57
2019-06-20T09:15:04.880Z,1007.55
2019-06-20T09:16:04.871Z,1007.57
2019-06-20T09:17:04.867Z,1007.52
2019-06-20T09:18:04.850Z,1007.55
2019-06-20T09:19:04.843Z,1007.59
2019-06-20T09:20:04.841Z,1007.53
2019-06-20T09:21:04.816Z,1007.59
2019-06-20T09:22:05.070Z,1007.53
2019-06-20T09:23:04.794Z,1007.56
2019-06-20T09:24:04.783Z,1007.54
2019-06-20T09:25:04.788Z,1007.58
2019-06-20T09:26:04.777Z,1007.54
2019-06-20T09:27:04.753Z,1007.62
2019-06-20T09:28:04.752Z,1007.60
2019-06-20T09:29:04.750Z,1007.63
2019-06-20T09:30:04.736Z,1007.64
2019-06-20T09:31:04.713Z,1007.65
2019-06-20T09:32:04.747Z,1007.65
2019-06-20T09:33:04.690Z,1007.67
2019-06-20T09:34:05.471Z,1007.69
2019-06-20T09:35:04.673Z,1007.73
2019-06-20T09:36:04.722Z,1007.74
2019-06-20T09:37:04.646Z,1007.83
2019-06-20T09:38:04.651Z,1007.86
2019-06-20T09:39:04.624Z,1007.81
2019-06-20T09:40:04.615Z,1007.87
2019-06-20T09:41:04.602Z,1007.84
2019-06-20T09:42:04.593Z,1007.79
2019-06-20T09:43:04.582Z,1007.86
2019-06-20T09:44:04.602Z,1007.84
2019-06-20T09:45:04.559Z,1007.80
2019-06-20T09:46:04.558Z,1007.79
2019-06-20T09:47:04.547Z,1007.78
2019-06-20T09:48:04.527Z,1007.76
2019-06-20T09:49:04.519Z,1007.80
2019-06-20T09:50:04.521Z,1007.81
2019-06-20T09:51:04.495Z,1007.81
2019-06-20T09:52:04.485Z,1007.80
2019-06-20T09:53:04.474Z,1007.78
2019-06-20T09:54:04.466Z,1007.76
2019-06-20T09:55:04.464Z,1007.73
2019-06-20T09:56:04.475Z,1007.79
2019-06-20T09:57:04.431Z,1007.74
2019-06-20T09:58:04.434Z,1007.81
2019-06-20T09:59:04.416Z,1007.82
2019-06-20T10:00:10.109Z,1007.84
2019-06-20T10:01:05.401Z,1007.84
2019-06-20T10:02:04.381Z,1007.83
2019-06-20T10:03:04.367Z,1007.83
2019-06-20T10:04:04.355Z,1007.80
2019-06-20T10:05:04.344Z,1007.80
2019-06-20T10:06:13.429Z,1007.81
2019-06-20T10:07:05.340Z,1007.81
2019-06-20T10:08:04.314Z,1007.83
2019-06-20T10:09:04.307Z,1007.84
2019-06-20T10:10:04.292Z,1007.89
2019-06-20T10:11:04.283Z,1007.86
2019-06-20T10:12:04.280Z,1007.84
2019-06-20T10:13:04.283Z,1007.92
2019-06-20T10:14:04.251Z,1007.94
2019-06-20T10:15:04.260Z,1008.02
2019-06-20T10:16:04.237Z,1007.91
2019-06-20T10:17:04.223Z,1007.87
2019-06-20T10:18:04.211Z,1007.86
2019-06-20T10:19:04.211Z,1007.86
2019-06-20T10:20:04.191Z,1007.87
2019-06-20T10:21:04.178Z,1007.87
2019-06-20T10:22:04.171Z,1007.80
2019-06-20T10:23:04.159Z,1007.78
2019-06-20T10:24:04.146Z,1007.73
2019-06-20T10:25:04.146Z,1007.81
2019-06-20T10:26:04.126Z,1007.86
2019-06-20T10:27:04.135Z,1007.94
2019-06-20T10:28:04.103Z,1007.86
2019-06-20T10:29:04.093Z,1007.86
2019-06-20T10:30:13.857Z,1007.98
2019-06-20T10:31:05.083Z,1008.05
2019-06-20T10:32:04.079Z,1007.94
2019-06-20T10:33:04.054Z,1007.86
2019-06-20T10:34:04.042Z,1007.90
2019-06-20T10:35:04.031Z,1007.95
2019-06-20T10:36:04.020Z,1007.86
2019-06-20T10:37:04.044Z,1007.87
2019-06-20T10:38:03.999Z,1007.92
2019-06-20T10:39:03.995Z,1007.95
2019-06-20T10:40:03.987Z,1007.91
2019-06-20T10:41:03.971Z,1007.89
2019-06-20T10:42:03.967Z,1007.93
2019-06-20T10:43:03.962Z,1007.89
2019-06-20T10:44:03.940Z,1007.94
2019-06-20T10:45:03.963Z,1007.90
2019-06-20T10:46:03.924Z,1007.91
2019-06-20T10:47:03.910Z,1007.93
2019-06-20T10:48:03.895Z,1007.95
2019-06-20T10:49:03.903Z,1007.96
2019-06-20T10:50:03.878Z,1007.98
2019-06-20T10:51:03.864Z,1008.04
2019-06-20T10:52:03.854Z,1008.08
2019-06-20T10:53:03.847Z,1008.09
2019-06-20T10:54:03.875Z,1008.02
2019-06-20T10:55:03.864Z,1007.99
2019-06-20T10:56:03.813Z,1008.06
2019-06-20T10:57:03.803Z,1008.08
2019-06-20T10:58:03.800Z,1008.01
2019-06-20T10:59:03.794Z,1008.09
2019-06-20T11:00:03.772Z,1008.11
2019-06-20T11:01:03.786Z,1008.07
2019-06-20T11:02:06.460Z,1008.05
2019-06-20T11:03:03.739Z,1008.06
2019-06-20T11:04:03.730Z,1008.03
2019-06-20T11:05:03.721Z,1008.06
2019-06-20T11:06:03.709Z,1008.03
2019-06-20T11:07:03.714Z,1008.05
2019-06-20T11:08:03.687Z,1008.04
2019-06-20T11:09:03.675Z,1008.09
2019-06-20T11:10:03.669Z,1008.07
2019-06-20T11:11:03.682Z,1008.05
2019-06-20T11:12:03.658Z,1008.08
2019-06-20T11:13:03.646Z,1008.05
2019-06-20T11:14:03.632Z,1008.04
2019-06-20T11:15:03.613Z,1008.05
2019-06-20T11:16:03.602Z,1008.04
2019-06-20T11:17:03.593Z,1008.07
2019-06-20T11:18:03.598Z,1008.07
2019-06-20T11:19:03.584Z,1008.10
2019-06-20T11:20:03.561Z,1008.04
2019-06-20T11:21:03.549Z,1008.06
2019-06-20T11:22:03.554Z,1008.07
2019-06-20T11:23:03.526Z,1008.04
2019-06-20T11:24:03.525Z,1008.07
2019-06-20T11:25:03.520Z,1008.01
2019-06-20T11:26:03.496Z,1008.00
2019-06-20T11:27:03.485Z,1007.98
2019-06-20T11:28:03.478Z,1007.91
2019-06-20T11:29:03.491Z,1007.94
2019-06-20T11:30:03.698Z,1007.97
2019-06-20T11:31:03.458Z,1007.99
2019-06-20T11:32:03.435Z,1007.96
2019-06-20T11:33:03.427Z,1007.98
2019-06-20T11:34:03.412Z,1007.96
2019-06-20T11:35:03.424Z,1007.96
2019-06-20T11:36:03.388Z,1007.99
2019-06-20T11:37:03.391Z,1008.04
2019-06-20T11:38:03.374Z,1008.01
2019-06-20T11:39:03.357Z,1008.00
2019-06-20T11:40:03.348Z,1008.03
2019-06-20T11:41:03.334Z,1007.99
2019-06-20T11:42:03.328Z,1007.95
2019-06-20T11:43:03.479Z,1007.92
2019-06-20T11:44:03.309Z,1008.01
2019-06-20T11:45:03.334Z,1007.98
2019-06-20T11:46:03.285Z,1007.97
2019-06-20T11:47:03.325Z,1007.95
2019-06-20T11:48:03.263Z,1008.01
2019-06-20T11:49:03.262Z,1007.99
2019-06-20T11:50:03.263Z,1008.08
2019-06-20T11:51:03.234Z,1008.10
2019-06-20T11:52:03.222Z,1008.16
2019-06-20T11:53:03.224Z,1008.16
2019-06-20T11:54:03.200Z,1008.06
2019-06-20T11:55:03.204Z,1008.14
2019-06-20T11:56:03.187Z,1008.18
2019-06-20T11:57:03.181Z,1008.25
2019-06-20T11:58:03.160Z,1008.18
2019-06-20T11:59:03.154Z,1008.24
2019-06-20T12:00:03.139Z,1008.21
2019-06-20T12:01:04.219Z,1008.18
2019-06-20T12:02:03.120Z,1008.16
2019-06-20T12:03:03.108Z,1008.16
2019-06-20T12:04:03.098Z,1008.15
2019-06-20T12:05:03.083Z,1008.17
2019-06-20T12:06:03.099Z,1008.22
2019-06-20T12:07:03.077Z,1008.22
2019-06-20T12:08:03.063Z,1008.21
2019-06-20T12:09:03.043Z,1008.26